Hauptseite
METAR-TAF:

METAR-TAF

Flughäfen :

Bohrplattform

F3-fb-1, Niederlande

Breite: 54-51-14N, Länge: 4-41-36E, Höhe: 33 m

Beobachtung

Neuester Wetterbericht von vor 49 Minuten, um 18:55 UTC
Wind 15 kt aus Süd/Südwest
Temperatur 14°C
Luftfeuchtigkeit 82%
Luftdruck 1014 hPa
Sichtweite 10 km oder mehr

METAR: EHFD 231855Z AUTO 21015KT 9999 BKN031/// OVC035/// 14/11 Q1014

Zeit: 21:44 (19:44 UTC)


TAF: fehlend

Wetterbeobachtungen und Prognosen von mehr als 4000 Flughäfen (METAR und TAF Bericht).

Die verfügbaren Stationen werden durch gelbe und rote Markierungen auf der Karte dargestellt.

Führen Sie die Maus auf sie, um den Namen der Station zu sehen.

Darauf klicken, um die Beobachtung von Wetterbeobachtungen und Prognosen zu sehen.

Um die Karte zu ändern : klicken Sie auf den grünen Tasten mit einem schwarzen Kreuz Zum Vergrößern, auf den grünen Button mit einem Gedankenstrich zu verkleinern, oder auf die grünen Pfeile für benachbarte Karten.


METAR-TAF: